Time;durP1;ratioP1;P1;durP2;ratioP2;P2;SDS_P1;SDS_P2;PMS_P1;PMS_P2;Temp;Humidity;BMP_temperature;BMP_pressure;BME280_temperature;BME280_humidity;BME280_pressure;Samples;Min_cycle;Max_cycle;Signal;HPM_P1;HPM_P2
2022/08/14 04:00:39;;;;;;;9.40;8.50;;;13.20;96.30;;;;;;5900467;23;21141;-81
2022/08/14 04:03:07;;;;;;;10.90;10.00;;;13.30;96.30;;;;;;5030917;28;20466;-80
2022/08/14 04:05:33;;;;;;;10.60;9.70;;;13.30;96.30;;;;;;5029572;28;20423;-81
2022/08/14 04:07:59;;;;;;;10.43;9.43;;;13.40;96.30;;;;;;5035221;28;20438;-79
2022/08/14 04:10:25;;;;;;;9.87;8.87;;;13.50;96.30;;;;;;5021986;28;20947;-80
2022/08/14 04:12:51;;;;;;;9.87;8.87;;;13.50;96.30;;;;;;5016007;28;20188;-80
2022/08/14 04:15:18;;;;;;;19.07;9.97;;;13.50;96.30;;;;;;5015459;28;20420;-78
2022/08/14 04:17:44;;;;;;;9.93;9.00;;;13.60;96.30;;;;;;5019916;28;20211;-81
2022/08/14 04:20:11;;;;;;;10.20;9.20;;;13.70;96.30;;;;;;5035774;28;20415;-80
2022/08/14 04:22:37;;;;;;;10.33;9.43;;;13.90;96.30;;;;;;5036910;28;20199;-80
2022/08/14 04:25:03;;;;;;;11.33;9.40;;;13.80;96.30;;;;;;5036141;28;20775;-79
2022/08/14 04:27:29;;;;;;;10.90;9.80;;;13.80;96.30;;;;;;5035233;28;20512;-80
2022/08/14 04:29:56;;;;;;;10.63;9.60;;;13.80;96.30;;;;;;5034346;28;20180;-79
2022/08/14 04:32:25;;;;;;;9.93;9.03;;;13.90;96.30;;;;;;5036579;28;20243;-79
2022/08/14 04:34:51;;;;;;;10.43;9.30;;;14.10;96.30;;;;;;5034810;28;20423;-80
2022/08/14 04:45:36;;;;;;;10.77;9.67;;;15.80;96.30;;;;;;5037921;28;20414;-80
2022/08/14 04:48:14;;;;;;;9.97;9.10;;;16.40;96.30;;;;;;5037731;28;20415;-80
2022/08/14 04:50:45;;;;;;;7.90;7.20;;;16.80;96.30;;;;;;5037950;28;20446;-79
2022/08/14 04:53:19;;;;;;;8.43;7.73;;;16.90;96.30;;;;;;5036798;28;20910;-79
2022/08/14 04:55:47;;;;;;;8.80;8.10;;;17.00;96.30;;;;;;5037211;28;20448;-79
2022/08/14 04:58:15;;;;;;;9.00;8.20;;;17.10;96.30;;;;;;5037563;28;20430;-79
2022/08/14 05:00:41;;;;;;;9.50;8.60;;;17.00;96.30;;;;;;5036033;28;21029;-79
2022/08/14 05:03:07;;;;;;;8.57;7.87;;;16.80;96.30;;;;;;5036770;28;20601;-78
2022/08/14 05:05:33;;;;;;;10.17;8.27;;;16.60;96.30;;;;;;5037902;28;20203;-80
2022/08/14 05:08:11;;;;;;;8.93;8.13;;;16.40;96.30;;;;;;5036716;28;20183;-79
2022/08/14 05:10:39;;;;;;;10.57;9.57;;;16.30;96.30;;;;;;5036152;28;20798;-80
2022/08/14 05:13:05;;;;;;;9.37;8.57;;;16.20;96.30;;;;;;5036162;28;20426;-79
2022/08/14 05:15:35;;;;;;;9.10;8.30;;;16.30;96.30;;;;;;5036028;28;20423;-80
2022/08/14 05:18:01;;;;;;;9.23;8.33;;;16.40;96.30;;;;;;5035380;28;20180;-79
2022/08/14 05:20:27;;;;;;;11.50;8.67;;;16.40;96.30;;;;;;5037489;28;20782;-79
2022/08/14 05:22:52;;;;;;;9.27;8.37;;;16.40;96.30;;;;;;5036951;28;20963;-80
2022/08/14 05:25:18;;;;;;;9.50;8.60;;;16.40;96.30;;;;;;5036394;28;20176;-77
2022/08/14 05:27:44;;;;;;;8.50;7.60;;;16.50;96.30;;;;;;5034419;28;20168;-79
2022/08/14 05:30:10;;;;;;;10.40;8.73;;;16.50;96.30;;;;;;5035091;28;20506;-79
2022/08/14 05:32:35;;;;;;;9.93;8.73;;;16.40;96.30;;;;;;5035553;28;20177;-79
2022/08/14 05:35:01;;;;;;;9.83;8.93;;;16.40;96.30;;;;;;5037359;28;20418;-79
2022/08/14 05:37:27;;;;;;;9.80;8.90;;;16.60;96.30;;;;;;5037499;28;20184;-79
2022/08/14 05:39:53;;;;;;;11.50;8.50;;;16.80;96.30;;;;;;5035401;28;20210;-77
2022/08/14 05:42:19;;;;;;;8.20;7.50;;;17.20;96.30;;;;;;5032257;28;20493;-77
2022/08/14 05:44:45;;;;;;;9.37;8.53;;;17.60;96.30;;;;;;5032393;28;20776;-77
2022/08/14 05:47:10;;;;;;;11.03;10.10;;;18.20;96.30;;;;;;5032359;28;20486;-77
2022/08/14 05:49:36;;;;;;;11.57;10.57;;;18.50;96.30;;;;;;5031621;28;20315;-80
2022/08/14 05:52:02;;;;;;;11.37;10.47;;;19.00;96.30;;;;;;5032222;28;20192;-77
2022/08/14 05:54:29;;;;;;;10.40;9.30;;;19.80;96.30;;;;;;5032212;28;20190;-77
2022/08/14 05:56:54;;;;;;;10.50;9.50;;;20.50;96.30;;;;;;5032287;28;20754;-77
2022/08/14 05:59:19;;;;;;;11.07;10.00;;;21.30;96.30;;;;;;5031708;28;20454;-77
2022/08/14 06:01:45;;;;;;;10.37;9.47;;;21.70;96.30;;;;;;5031921;28;20239;-78
2022/08/14 06:04:10;;;;;;;13.67;10.03;;;22.20;96.30;;;;;;5032101;28;20176;-77
2022/08/14 06:06:36;;;;;;;10.60;9.60;;;22.50;96.30;;;;;;5030740;28;20186;-78
2022/08/14 06:09:02;;;;;;;10.30;9.40;;;23.30;96.30;;;;;;5031457;28;20191;-78
2022/08/14 06:11:27;;;;;;;9.57;8.57;;;24.40;96.30;;;;;;5031996;28;20223;-78
2022/08/14 06:13:53;;;;;;;8.20;7.50;;;24.90;96.30;;;;;;5034125;28;20194;-77
2022/08/14 06:16:18;;;;;;;8.77;7.90;;;25.20;96.30;;;;;;5036215;28;20262;-78
2022/08/14 06:18:48;;;;;;;7.77;7.17;;;25.30;96.30;;;;;;5035596;28;20185;-78
2022/08/14 06:21:14;;;;;;;8.20;7.50;;;24.60;96.30;;;;;;5034555;28;20217;-82
2022/08/14 06:23:40;;;;;;;9.23;8.40;;;24.80;96.30;;;;;;5034637;28;21042;-78
2022/08/14 06:26:05;;;;;;;8.63;7.93;;;24.30;96.30;;;;;;5035888;28;20410;-77
2022/08/14 06:28:31;;;;;;;8.60;7.80;;;24.20;96.30;;;;;;5035525;28;20662;-78
2022/08/14 06:30:56;;;;;;;8.73;7.93;;;24.00;96.30;;;;;;5040709;28;20620;-80
2022/08/14 06:33:23;;;;;;;7.47;6.87;;;24.20;96.30;;;;;;5042601;28;20164;-80
2022/08/14 06:35:49;;;;;;;8.73;7.93;;;24.10;96.30;;;;;;5041910;28;20602;-80
2022/08/14 06:38:17;;;;;;;8.40;7.60;;;24.30;96.30;;;;;;5041416;28;20434;-80
2022/08/14 06:40:44;;;;;;;9.00;8.20;;;24.90;96.30;;;;;;5041100;28;20199;-80
2022/08/14 06:43:10;;;;;;;9.60;8.70;;;25.50;96.30;;;;;;5041762;28;20465;-80
2022/08/14 06:45:38;;;;;;;8.90;8.10;;;25.70;96.30;;;;;;5042150;28;20410;-80
2022/08/14 06:48:04;;;;;;;9.80;8.83;;;25.70;96.30;;;;;;5039406;28;20547;-80
2022/08/14 06:50:30;;;;;;;8.60;7.73;;;25.90;96.30;;;;;;5041047;28;20438;-80
2022/08/14 06:52:59;;;;;;;9.60;8.73;;;26.10;96.30;;;;;;5040048;28;20448;-80
2022/08/14 06:55:25;;;;;;;9.40;8.50;;;25.70;96.30;;;;;;5039456;28;20426;-80
2022/08/14 06:57:51;;;;;;;10.13;9.10;;;25.70;96.30;;;;;;5041102;28;20791;-80
2022/08/14 07:00:25;;;;;;;9.60;8.80;;;25.30;96.30;;;;;;5040718;28;20172;-80
2022/08/14 07:05:45;;;;;;;10.43;9.00;;;26.70;96.30;;;;;;5040446;28;20446;-80
2022/08/14 07:08:28;;;;;;;8.73;8.03;;;27.10;96.30;;;;;;5039375;28;20771;-81
2022/08/14 07:10:57;;;;;;;8.60;7.97;;;27.30;96.30;;;;;;5037464;28;20446;-80
2022/08/14 07:13:23;;;;;;;10.83;9.00;;;27.80;95.80;;;;;;5039146;28;20440;-81
2022/08/14 07:15:51;;;;;;;11.87;8.90;;;28.60;94.70;;;;;;5037464;28;20422;-81
2022/08/14 07:18:21;;;;;;;8.70;7.80;;;28.90;92.20;;;;;;5038924;28;20429;-81
2022/08/14 07:20:47;;;;;;;9.20;8.17;;;28.50;93.80;;;;;;5038793;28;20430;-81
2022/08/14 07:23:13;;;;;;;8.30;7.50;;;29.00;91.80;;;;;;5039318;28;20469;-81
2022/08/14 07:25:41;;;;;;;7.93;7.10;;;29.40;89.80;;;;;;5037385;28;20183;-81
2022/08/14 07:28:12;;;;;;;8.30;7.20;;;29.90;87.90;;;;;;5037800;28;20433;-81
2022/08/14 07:30:38;;;;;;;11.13;8.20;;;30.10;88.00;;;;;;5037894;28;20525;-80
2022/08/14 07:33:04;;;;;;;9.10;8.27;;;29.40;88.50;;;;;;5038677;28;20421;-80
2022/08/14 07:35:31;;;;;;;7.70;7.00;;;29.70;88.30;;;;;;5039390;28;20765;-81
2022/08/14 07:37:56;;;;;;;7.57;6.87;;;29.50;89.80;;;;;;5037580;28;20221;-81
2022/08/14 07:40:21;;;;;;;8.63;7.03;;;29.50;89.40;;;;;;5039301;28;20415;-80
2022/08/14 07:42:47;;;;;;;7.77;7.17;;;29.80;87.10;;;;;;5038205;28;20203;-80
2022/08/14 07:45:13;;;;;;;8.07;6.70;;;30.60;86.00;;;;;;5040336;28;20230;-80
2022/08/14 07:47:42;;;;;;;7.63;7.00;;;31.00;85.10;;;;;;5039472;28;20182;-81
2022/08/14 07:50:13;;;;;;;8.00;7.20;;;31.10;84.10;;;;;;5038494;28;20180;-80
2022/08/14 07:52:40;;;;;;;7.73;7.07;;;30.30;85.10;;;;;;5039611;28;20956;-80
2022/08/14 07:55:07;;;;;;;14.10;7.60;;;29.10;88.30;;;;;;5039907;28;20484;-80
2022/08/14 07:57:33;;;;;;;7.83;6.77;;;28.80;89.20;;;;;;5040549;28;20407;-80
2022/08/14 07:59:58;;;;;;;7.70;6.90;;;29.10;89.30;;;;;;5039785;28;21105;-79
2022/08/14 08:02:29;;;;;;;7.37;6.60;;;29.80;86.70;;;;;;5038812;28;20218;-80
2022/08/14 08:04:56;;;;;;;6.77;6.10;;;30.50;85.80;;;;;;5040269;28;20168;-80
2022/08/14 08:07:25;;;;;;;10.03;7.00;;;30.60;85.10;;;;;;5040367;28;20533;-80
2022/08/14 08:09:56;;;;;;;9.00;6.50;;;31.10;83.00;;;;;;5038622;28;20422;-80
2022/08/14 08:12:24;;;;;;;7.93;7.13;;;30.40;84.70;;;;;;5039237;28;20430;-80
2022/08/14 08:14:50;;;;;;;8.30;6.60;;;30.60;84.50;;;;;;5039334;28;20988;-80
2022/08/14 08:17:18;;;;;;;10.70;6.50;;;30.40;85.80;;;;;;5038251;28;20938;-79
2022/08/14 08:19:46;;;;;;;7.33;5.93;;;29.70;85.10;;;;;;5037355;28;20509;-79
2022/08/14 08:22:11;;;;;;;6.23;5.73;;;30.00;84.80;;;;;;5039285;28;20458;-80
2022/08/14 08:24:38;;;;;;;9.23;5.90;;;30.10;83.90;;;;;;5039304;28;20536;-81
2022/08/14 08:27:16;;;;;;;5.90;5.40;;;30.80;81.90;;;;;;5039279;28;20172;-79
2022/08/14 08:29:42;;;;;;;5.23;4.73;;;30.30;82.00;;;;;;5037672;28;20410;-80
2022/08/14 08:32:08;;;;;;;6.50;5.40;;;29.50;83.60;;;;;;5038456;28;20454;-80
2022/08/14 08:34:45;;;;;;;6.33;5.73;;;28.80;85.10;;;;;;5037851;28;20258;-79
2022/08/14 08:37:12;;;;;;;7.83;5.83;;;28.30;87.30;;;;;;5037951;28;20183;-79
2022/08/14 08:39:46;;;;;;;6.60;6.00;;;29.20;84.70;;;;;;5037319;28;20403;-80
2022/08/14 08:42:11;;;;;;;6.40;5.90;;;29.60;83.20;;;;;;5033042;28;20887;-79
2022/08/14 08:44:37;;;;;;;6.37;5.40;;;29.40;84.80;;;;;;5017029;28;20423;-79
2022/08/14 08:47:06;;;;;;;8.27;5.33;;;29.40;83.50;;;;;;5017363;28;20173;-79
2022/08/14 08:49:43;;;;;;;6.17;5.57;;;29.30;85.10;;;;;;5016688;28;20730;-80
2022/08/14 08:52:09;;;;;;;13.23;6.60;;;29.10;84.40;;;;;;5017756;28;20513;-79
2022/08/14 08:54:36;;;;;;;5.97;5.27;;;28.40;86.10;;;;;;5016966;28;20442;-79
2022/08/14 08:57:09;;;;;;;8.50;6.17;;;27.90;88.60;;;;;;5016957;28;20473;-79
2022/08/14 08:59:34;;;;;;;10.70;5.57;;;27.60;89.50;;;;;;5016515;28;20450;-80
2022/08/14 09:02:06;;;;;;;6.83;5.50;;;28.20;89.20;;;;;;5016926;28;20836;-79
2022/08/14 09:04:38;;;;;;;6.23;5.60;;;29.60;86.50;;;;;;5015735;28;20179;-79
2022/08/14 09:07:04;;;;;;;6.47;5.87;;;29.70;84.20;;;;;;5017326;28;20772;-80
2022/08/14 09:09:32;;;;;;;5.70;5.20;;;29.50;84.30;;;;;;5022823;28;20497;-79
2022/08/14 09:11:59;;;;;;;6.73;5.57;;;29.40;83.80;;;;;;5035912;28;20438;-79
2022/08/14 09:14:28;;;;;;;5.90;5.33;;;29.40;83.90;;;;;;5036467;28;20414;-79
2022/08/14 09:16:56;;;;;;;6.70;5.60;;;29.40;84.10;;;;;;5036301;28;20415;-79
2022/08/14 09:19:21;;;;;;;5.60;5.07;;;28.80;84.20;;;;;;5035018;28;20921;-79
2022/08/14 09:21:47;;;;;;;6.87;5.53;;;28.30;85.50;;;;;;5034173;28;20454;-79
2022/08/14 09:24:14;;;;;;;7.13;4.77;;;28.10;86.60;;;;;;5036326;28;20199;-79
2022/08/14 09:26:41;;;;;;;9.27;5.17;;;28.30;86.00;;;;;;5036509;28;20416;-79
2022/08/14 09:29:08;;;;;;;8.63;4.70;;;29.10;83.70;;;;;;5034289;28;20414;-79
2022/08/14 09:31:36;;;;;;;7.50;4.83;;;30.10;79.80;;;;;;5034923;28;20481;-79
2022/08/14 09:34:44;;;;;;;4.23;3.80;;;30.20;78.00;;;;;;5035185;28;20468;-79
2022/08/14 09:37:33;;;;;;;6.27;4.00;;;30.10;78.00;;;;;;5035090;28;20414;-80
2022/08/14 09:40:05;;;;;;;3.87;3.50;;;30.50;77.30;;;;;;5034183;28;20403;-78
2022/08/14 09:43:02;;;;;;;4.57;3.60;;;29.80;76.60;;;;;;5034919;28;20465;-79
2022/08/14 09:45:48;;;;;;;8.80;4.20;;;29.10;78.10;;;;;;5034837;28;20414;-79
2022/08/14 09:48:16;;;;;;;4.30;3.70;;;29.40;77.70;;;;;;5034122;28;20413;-79
2022/08/14 09:50:50;;;;;;;4.90;3.90;;;29.90;78.20;;;;;;5034620;28;20427;-79
2022/08/14 09:53:33;;;;;;;4.40;3.67;;;29.40;78.20;;;;;;5034792;28;20414;-79
2022/08/14 09:55:59;;;;;;;6.13;3.50;;;28.30;80.20;;;;;;5034227;28;20410;-79
2022/08/14 09:58:45;;;;;;;4.80;3.93;;;28.80;79.70;;;;;;5032417;28;20426;-79
2022/08/14 10:01:13;;;;;;;4.27;3.90;;;28.60;78.90;;;;;;5034236;28;20460;-78
2022/08/14 10:04:19;;;;;;;5.03;4.00;;;28.40;79.40;;;;;;5032769;28;20546;-79
2022/08/14 10:06:45;;;;;;;4.47;4.07;;;28.40;80.00;;;;;;5033091;28;20418;-79
2022/08/14 10:09:12;;;;;;;7.73;3.20;;;28.80;78.70;;;;;;5035166;28;20423;-80
2022/08/14 10:11:39;;;;;;;4.70;4.23;;;28.80;79.00;;;;;;5037700;28;20427;-79
2022/08/14 10:14:18;;;;;;;4.33;3.93;;;29.00;80.40;;;;;;5035026;28;20442;-78
2022/08/14 10:16:53;;;;;;;3.90;3.60;;;29.00;79.90;;;;;;5036650;28;20430;-80
2022/08/14 10:19:20;;;;;;;3.43;3.23;;;29.50;76.90;;;;;;5032639;28;20433;-78
2022/08/14 10:22:02;;;;;;;5.47;3.57;;;29.40;75.90;;;;;;5019981;28;20798;-78
2022/08/14 10:24:39;;;;;;;4.10;3.37;;;28.90;79.10;;;;;;5014413;28;20510;-80
2022/08/14 10:27:15;;;;;;;5.63;3.67;;;29.10;79.30;;;;;;5016989;28;20993;-78
2022/08/14 10:29:43;;;;;;;4.20;3.80;;;29.30;79.70;;;;;;5030935;28;20422;-79
2022/08/14 10:32:10;;;;;;;12.70;4.07;;;30.00;75.30;;;;;;5015731;28;20439;-79
2022/08/14 10:34:40;;;;;;;4.10;3.70;;;30.20;74.60;;;;;;5014939;28;20483;-80
2022/08/14 10:37:11;;;;;;;8.20;3.50;;;30.70;74.10;;;;;;5014628;28;20785;-79
2022/08/14 10:39:38;;;;;;;4.97;3.77;;;30.30;75.00;;;;;;5014063;28;20775;-78
2022/08/14 10:42:10;;;;;;;5.10;3.17;;;30.00;75.70;;;;;;5034704;28;20469;-79
2022/08/14 10:44:38;;;;;;;3.63;2.80;;;30.50;75.00;;;;;;5036473;28;20411;-78
2022/08/14 10:47:11;;;;;;;3.40;3.13;;;29.60;75.30;;;;;;5036364;28;20415;-80
2022/08/14 10:49:48;;;;;;;3.37;3.07;;;29.70;76.00;;;;;;5033835;28;20418;-78
2022/08/14 10:52:23;;;;;;;6.70;4.20;;;29.30;76.20;;;;;;5035568;28;20426;-79
2022/08/14 10:54:50;;;;;;;7.10;3.33;;;29.00;77.50;;;;;;5035216;28;20493;-79
2022/08/14 10:57:23;;;;;;;3.53;3.23;;;29.10;77.60;;;;;;5035934;28;20776;-78
2022/08/14 10:59:57;;;;;;;6.80;3.03;;;29.60;76.90;;;;;;5036682;28;20437;-80
2022/08/14 11:02:31;;;;;;;3.30;3.00;;;29.60;76.20;;;;;;5038996;28;20945;-80
2022/08/14 11:05:13;;;;;;;4.77;3.30;;;29.30;76.80;;;;;;5038436;28;20456;-78
2022/08/14 11:07:56;;;;;;;3.80;3.50;;;29.50;77.30;;;;;;5038178;28;20418;-79
2022/08/14 11:10:25;;;;;;;11.30;4.27;;;30.10;75.80;;;;;;5039409;28;20467;-79
2022/08/14 11:12:54;;;;;;;4.63;3.10;;;30.30;74.60;;;;;;5039402;28;20414;-79
2022/08/14 11:15:26;;;;;;;5.73;3.33;;;30.40;73.60;;;;;;5039681;28;20418;-78
2022/08/14 11:17:52;;;;;;;3.77;3.47;;;29.90;74.60;;;;;;5038584;28;20419;-78
2022/08/14 11:20:27;;;;;;;3.60;3.30;;;29.90;74.80;;;;;;5039151;28;20414;-77
2022/08/14 11:22:56;;;;;;;8.90;3.63;;;30.40;74.00;;;;;;5039331;28;20930;-79
2022/08/14 11:25:24;;;;;;;4.70;3.90;;;30.40;75.60;;;;;;5038905;28;20433;-79
2022/08/14 11:27:52;;;;;;;6.87;3.30;;;29.70;76.40;;;;;;5038559;28;20925;-79
2022/08/14 11:30:20;;;;;;;6.80;3.60;;;29.40;77.10;;;;;;5038851;28;20417;-79
2022/08/14 11:32:48;;;;;;;4.23;3.17;;;29.20;77.80;;;;;;5038307;28;20415;-78
2022/08/14 11:35:18;;;;;;;4.53;2.90;;;29.30;77.40;;;;;;5038394;28;21033;-79
2022/08/14 11:37:58;;;;;;;7.03;3.97;;;29.10;77.80;;;;;;5038982;28;20410;-78
2022/08/14 11:40:25;;;;;;;7.90;4.00;;;28.80;78.30;;;;;;5038484;28;20422;-78
2022/08/14 11:42:54;;;;;;;7.53;3.87;;;29.00;78.00;;;;;;5037422;28;20553;-78
2022/08/14 11:45:24;;;;;;;7.03;4.20;;;29.50;78.10;;;;;;5039194;28;20406;-78
2022/08/14 11:47:51;;;;;;;4.97;3.70;;;30.10;77.20;;;;;;5038567;28;20472;-79
2022/08/14 11:50:23;;;;;;;6.23;4.30;;;30.00;76.00;;;;;;5040459;28;20403;-79
2022/08/14 11:52:52;;;;;;;6.83;3.23;;;29.60;76.80;;;;;;5041469;28;20411;-80
2022/08/14 11:55:18;;;;;;;3.53;3.23;;;30.10;76.40;;;;;;5040208;28;20414;-78
2022/08/14 11:57:45;;;;;;;12.10;3.80;;;30.00;76.30;;;;;;5039683;28;20438;-79
2022/08/14 12:00:15;;;;;;;4.63;3.93;;;29.60;77.10;;;;;;5038808;28;20417;-78
2022/08/14 12:02:58;;;;;;;6.57;4.03;;;29.30;77.60;;;;;;5038317;28;20989;-79
2022/08/14 12:05:38;;;;;;;4.80;3.80;;;29.80;76.80;;;;;;5037836;28;20410;-79
2022/08/14 12:08:08;;;;;;;4.63;4.30;;;30.20;76.20;;;;;;5037035;28;20411;-78
2022/08/14 12:10:38;;;;;;;6.73;4.13;;;30.10;76.70;;;;;;5038033;28;20453;-80
2022/08/14 12:13:17;;;;;;;4.23;3.73;;;29.80;75.10;;;;;;5038958;28;20465;-78
2022/08/14 12:15:45;;;;;;;3.80;3.50;;;29.80;75.20;;;;;;5039525;28;20468;-79
2022/08/14 12:18:11;;;;;;;4.30;3.57;;;29.70;74.50;;;;;;5037970;28;20414;-78
2022/08/14 12:20:41;;;;;;;3.23;2.90;;;30.00;74.00;;;;;;5037715;28;20434;-78
2022/08/14 12:23:19;;;;;;;7.70;3.93;;;29.90;71.00;;;;;;5039115;28;20864;-79
2022/08/14 12:25:44;;;;;;;8.13;5.00;;;29.90;72.50;;;;;;5037359;28;20450;-79
2022/08/14 12:28:11;;;;;;;4.40;3.83;;;30.10;72.30;;;;;;5037874;28;20468;-79
2022/08/14 12:30:40;;;;;;;4.13;3.77;;;30.10;72.90;;;;;;5038437;28;20191;-78
2022/08/14 12:33:21;;;;;;;4.23;3.83;;;29.80;73.20;;;;;;5038745;28;20410;-79
2022/08/14 12:35:48;;;;;;;4.37;3.97;;;29.90;74.80;;;;;;5036442;28;20472;-79
2022/08/14 12:38:15;;;;;;;7.20;3.60;;;29.40;75.50;;;;;;5037123;28;20406;-78
2022/08/14 12:40:48;;;;;;;6.00;3.77;;;29.00;76.60;;;;;;5037833;28;20880;-79
2022/08/14 12:43:17;;;;;;;4.90;4.50;;;29.00;77.40;;;;;;5038533;28;20557;-79
2022/08/14 12:45:49;;;;;;;4.93;3.97;;;29.10;77.60;;;;;;5037707;28;20784;-79
2022/08/14 12:48:15;;;;;;;5.90;4.20;;;29.10;77.30;;;;;;5037154;28;20895;-79
2022/08/14 12:50:41;;;;;;;4.60;4.20;;;29.20;77.60;;;;;;5037387;28;20423;-78
2022/08/14 12:53:08;;;;;;;4.77;4.10;;;28.90;77.80;;;;;;5037897;28;20402;-79
2022/08/14 12:55:39;;;;;;;5.60;3.90;;;29.00;77.70;;;;;;5035858;28;21048;-79
2022/08/14 12:58:06;;;;;;;4.50;4.13;;;28.70;78.60;;;;;;5036863;28;20973;-79
2022/08/14 13:00:37;;;;;;;4.73;4.23;;;28.40;79.10;;;;;;5035673;28;20946;-78
2022/08/14 13:03:04;;;;;;;4.33;3.93;;;28.20;79.90;;;;;;5036797;28;20446;-80
2022/08/14 13:05:33;;;;;;;6.93;4.27;;;28.20;80.10;;;;;;5036706;28;20433;-79
2022/08/14 13:08:02;;;;;;;6.10;4.43;;;28.40;80.10;;;;;;5037536;28;20411;-79
2022/08/14 13:10:32;;;;;;;8.90;4.50;;;28.60;79.90;;;;;;5037174;28;20450;-79
2022/08/14 13:12:58;;;;;;;4.80;4.40;;;28.80;79.10;;;;;;5037036;28;20414;-79
2022/08/14 13:15:25;;;;;;;9.83;4.17;;;29.10;78.40;;;;;;5035606;28;20424;-80
2022/08/14 13:17:53;;;;;;;4.03;3.60;;;29.20;76.40;;;;;;5036628;28;20548;-78
2022/08/14 13:20:21;;;;;;;4.13;3.73;;;28.80;76.90;;;;;;5036882;28;20415;-79
2022/08/14 13:22:47;;;;;;;5.30;4.50;;;29.00;76.90;;;;;;5036643;28;20528;-78
2022/08/14 13:25:15;;;;;;;4.57;4.17;;;29.00;76.30;;;;;;5037185;28;20402;-79
2022/08/14 13:27:43;;;;;;;8.00;4.33;;;28.90;77.00;;;;;;5035358;28;20461;-78
2022/08/14 13:30:11;;;;;;;4.40;4.00;;;28.70;77.60;;;;;;5035811;28;20422;-78
2022/08/14 13:32:39;;;;;;;4.20;3.80;;;28.30;78.40;;;;;;5035296;28;20983;-79
2022/08/14 13:35:08;;;;;;;5.07;4.03;;;28.50;78.30;;;;;;5036405;28;20402;-78
2022/08/14 13:37:34;;;;;;;5.43;4.67;;;28.40;80.20;;;;;;5036936;28;20473;-78
2022/08/14 13:40:00;;;;;;;7.40;4.20;;;28.20;80.10;;;;;;5035968;28;20929;-79
2022/08/14 13:42:27;;;;;;;5.87;4.43;;;28.30;80.40;;;;;;5035475;28;20733;-78
2022/08/14 13:44:54;;;;;;;5.90;3.97;;;28.20;79.80;;;;;;5036644;28;20406;-78
2022/08/14 13:47:22;;;;;;;10.00;4.37;;;27.90;80.00;;;;;;5035702;28;20449;-78
2022/08/14 13:49:49;;;;;;;7.17;4.30;;;27.60;80.80;;;;;;5035558;28;20417;-77
2022/08/14 13:52:20;;;;;;;5.27;4.27;;;27.70;81.20;;;;;;5036690;28;20472;-79
2022/08/14 13:54:48;;;;;;;5.80;4.70;;;27.60;81.30;;;;;;5036341;28;20484;-78
2022/08/14 13:57:16;;;;;;;5.60;4.50;;;27.60;81.90;;;;;;5035881;28;20418;-78
2022/08/14 13:59:49;;;;;;;8.90;4.30;;;27.40;82.90;;;;;;5035600;28;20420;-78
2022/08/14 14:02:18;;;;;;;6.47;4.70;;;27.60;83.20;;;;;;5035236;28;20497;-79
2022/08/14 14:04:46;;;;;;;4.70;3.87;;;28.10;82.80;;;;;;5035013;28;20411;-78
2022/08/14 14:07:14;;;;;;;5.37;4.73;;;28.40;82.00;;;;;;5039809;28;20410;-79
2022/08/14 14:09:42;;;;;;;4.30;3.90;;;28.60;81.50;;;;;;5039645;28;20587;-79
2022/08/14 14:12:09;;;;;;;4.83;4.13;;;28.50;81.40;;;;;;5038919;28;20481;-79
2022/08/14 14:14:40;;;;;;;8.53;4.50;;;27.90;82.50;;;;;;5036093;28;20464;-78
2022/08/14 14:17:06;;;;;;;9.23;4.70;;;27.80;81.90;;;;;;5036571;28;20410;-79
2022/08/14 14:19:33;;;;;;;4.93;4.10;;;27.90;82.50;;;;;;5035863;28;20410;-78
2022/08/14 14:22:07;;;;;;;9.80;4.83;;;28.40;81.80;;;;;;5035854;28;20490;-78
2022/08/14 14:24:33;;;;;;;5.33;3.83;;;29.00;80.50;;;;;;5035666;28;20473;-77
2022/08/14 14:27:01;;;;;;;5.40;4.50;;;29.10;79.70;;;;;;5036381;28;20449;-79
2022/08/14 14:29:30;;;;;;;7.03;5.13;;;28.80;80.00;;;;;;5035350;28;20214;-79
2022/08/14 14:31:57;;;;;;;8.30;4.60;;;28.60;80.60;;;;;;5034872;28;20430;-78
2022/08/14 14:34:25;;;;;;;5.93;4.40;;;28.60;80.70;;;;;;5037134;28;20411;-78
2022/08/14 14:36:53;;;;;;;4.83;3.87;;;29.10;81.30;;;;;;5040427;28;20422;-80
2022/08/14 14:39:24;;;;;;;5.10;4.43;;;29.70;77.50;;;;;;5039820;28;21000;-79
2022/08/14 14:41:54;;;;;;;6.03;3.60;;;29.50;76.80;;;;;;5039121;28;20438;-79
2022/08/14 14:44:22;;;;;;;5.17;4.67;;;29.20;76.80;;;;;;5039185;28;20426;-79
2022/08/14 14:46:49;;;;;;;4.40;3.87;;;29.50;76.20;;;;;;5038505;28;20464;-78
2022/08/14 14:49:19;;;;;;;4.80;3.93;;;29.40;76.10;;;;;;5037668;28;20460;-79
2022/08/14 14:51:46;;;;;;;12.43;4.10;;;29.30;75.50;;;;;;5038694;28;20492;-78
2022/08/14 14:54:12;;;;;;;7.23;4.17;;;29.10;75.60;;;;;;5039811;28;20502;-78
2022/08/14 14:56:42;;;;;;;3.80;3.23;;;28.70;76.40;;;;;;5038787;28;20418;-78
2022/08/14 14:59:07;;;;;;;4.70;3.67;;;29.20;75.10;;;;;;5039280;28;20968;-78
2022/08/14 15:01:35;;;;;;;10.93;3.77;;;29.10;75.30;;;;;;5039976;28;20438;-78
2022/08/14 15:04:02;;;;;;;6.37;4.20;;;29.20;76.10;;;;;;5038192;28;20294;-79
2022/08/14 15:06:30;;;;;;;4.73;3.37;;;29.30;76.10;;;;;;5039800;28;20468;-79
2022/08/14 15:08:56;;;;;;;3.70;3.40;;;29.20;75.70;;;;;;5039348;28;20421;-79
2022/08/14 15:11:22;;;;;;;5.30;4.13;;;29.10;76.00;;;;;;5040109;28;20426;-79
2022/08/14 15:13:47;;;;;;;4.30;4.00;;;28.90;76.10;;;;;;5040647;28;20180;-79
2022/08/14 15:16:13;;;;;;;10.53;4.20;;;28.90;76.50;;;;;;5039834;28;20171;-78
2022/08/14 15:18:39;;;;;;;8.43;3.80;;;28.80;76.80;;;;;;5039622;28;20168;-78
2022/08/14 15:21:06;;;;;;;5.80;3.73;;;28.70;77.50;;;;;;5039754;28;20650;-78
2022/08/14 15:23:32;;;;;;;4.27;3.73;;;28.80;76.80;;;;;;5039875;28;20454;-78
2022/08/14 15:25:58;;;;;;;7.43;4.10;;;28.60;77.40;;;;;;5039885;28;20422;-79
2022/08/14 15:28:24;;;;;;;4.37;3.53;;;28.60;77.50;;;;;;5039697;28;20407;-78
2022/08/14 15:30:50;;;;;;;5.57;3.40;;;28.70;77.00;;;;;;5039479;28;20204;-78
2022/08/14 15:34:09;;;;;;;5.50;3.47;;;28.20;76.40;;;;;;5039610;28;20501;-78
2022/08/14 15:36:03;;;;;;;4.40;3.40;;;27.90;77.40;;;;;;5039547;28;20441;-79
2022/08/14 15:38:30;;;;;;;3.20;2.90;;;27.80;77.80;;;;;;5039020;28;20414;-78
2022/08/14 15:40:56;;;;;;;3.37;3.07;;;27.70;78.10;;;;;;5037864;28;20442;-79
2022/08/14 15:43:21;;;;;;;6.53;3.10;;;27.80;77.70;;;;;;5039871;28;20450;-79
2022/08/14 15:45:47;;;;;;;5.93;2.97;;;27.70;78.00;;;;;;5039194;28;20270;-79
2022/08/14 15:48:12;;;;;;;6.20;3.30;;;27.70;78.40;;;;;;5039814;28;20164;-78
2022/08/14 15:50:42;;;;;;;3.90;3.57;;;27.50;79.30;;;;;;5038869;28;20192;-77
2022/08/14 15:53:07;;;;;;;3.47;3.17;;;27.10;81.40;;;;;;5039968;28;20168;-79
2022/08/14 15:55:33;;;;;;;9.43;4.40;;;27.10;81.70;;;;;;5038024;28;20418;-79
2022/08/14 15:57:59;;;;;;;3.90;3.40;;;27.00;82.20;;;;;;5038864;28;20542;-78
2022/08/14 16:03:11;;;;;;;4.83;3.43;;;26.90;82.50;;;;;;5039074;28;20234;-78
2022/08/14 16:05:37;;;;;;;5.23;3.83;;;27.10;81.90;;;;;;5038832;28;20505;-78
2022/08/14 16:08:06;;;;;;;4.60;4.20;;;27.00;82.60;;;;;;5038682;28;20430;-79
2022/08/14 16:10:31;;;;;;;5.37;4.40;;;27.00;82.60;;;;;;5038739;28;20266;-78
2022/08/14 16:12:57;;;;;;;3.93;3.50;;;27.10;82.20;;;;;;5037876;28;20425;-77
2022/08/14 16:15:22;;;;;;;6.80;4.00;;;26.80;82.10;;;;;;5035534;28;20686;-77
2022/08/14 16:17:48;;;;;;;6.00;3.80;;;26.80;83.00;;;;;;5036329;28;20168;-79
2022/08/14 16:20:14;;;;;;;4.30;3.90;;;26.70;83.30;;;;;;5036309;28;20172;-78
2022/08/14 16:22:40;;;;;;;6.40;4.23;;;26.60;83.60;;;;;;5036965;28;20512;-79
2022/08/14 16:25:07;;;;;;;6.17;3.77;;;26.80;83.20;;;;;;5036371;28;20168;-79
2022/08/14 16:27:34;;;;;;;8.70;4.50;;;26.80;83.30;;;;;;5035447;28;20504;-79
2022/08/14 16:30:00;;;;;;;4.67;4.07;;;26.80;84.10;;;;;;5036080;28;20417;-79
2022/08/14 16:32:26;;;;;;;4.43;4.03;;;26.80;83.60;;;;;;5036559;28;20434;-79
2022/08/14 16:34:51;;;;;;;6.27;3.77;;;26.80;83.30;;;;;;5035297;28;20588;-79
2022/08/14 16:37:17;;;;;;;6.33;4.20;;;26.70;83.60;;;;;;5036371;28;20174;-79
2022/08/14 16:39:45;;;;;;;4.30;3.90;;;26.80;82.90;;;;;;5035324;28;20167;-79
2022/08/14 16:42:12;;;;;;;4.20;3.80;;;26.70;83.50;;;;;;5036966;28;20854;-79
2022/08/14 16:44:38;;;;;;;7.83;3.80;;;26.90;83.20;;;;;;5036492;28;20402;-79
2022/08/14 16:47:12;;;;;;;6.93;4.30;;;26.80;83.70;;;;;;5036067;28;20434;-79
2022/08/14 16:49:43;;;;;;;4.27;3.87;;;26.60;84.50;;;;;;5035571;28;20882;-79
2022/08/14 16:52:17;;;;;;;4.07;3.77;;;26.70;84.40;;;;;;5036425;28;20438;-79
2022/08/14 16:54:45;;;;;;;4.57;4.13;;;26.70;84.70;;;;;;5033101;28;20965;-77
2022/08/14 16:57:15;;;;;;;7.50;3.80;;;26.60;85.70;;;;;;5032520;28;20426;-78
2022/08/14 16:59:41;;;;;;;5.00;4.60;;;26.40;87.20;;;;;;5032611;28;20422;-77
2022/08/14 17:02:07;;;;;;;5.50;4.90;;;26.30;87.90;;;;;;5032896;28;20466;-77
2022/08/14 17:04:34;;;;;;;7.33;5.13;;;25.90;88.80;;;;;;5033006;28;20411;-76
2022/08/14 17:07:02;;;;;;;4.33;4.03;;;25.90;89.40;;;;;;5032859;28;20956;-77